sensor_id;sensor_type;location;lat;lon;timestamp;P1;durP1;ratioP1;P2;durP2;ratioP2
71435;SDS011;59251;51.326;12.370;2022-08-21T00:01:45;58.67;;;32.60;;
71435;SDS011;59251;51.326;12.370;2022-08-21T00:04:10;52.53;;;30.57;;
71435;SDS011;59251;51.326;12.370;2022-08-21T00:06:36;54.33;;;31.27;;
71435;SDS011;59251;51.326;12.370;2022-08-21T00:09:02;52.80;;;32.08;;
71435;SDS011;59251;51.326;12.370;2022-08-21T00:11:29;50.95;;;31.23;;
71435;SDS011;59251;51.326;12.370;2022-08-21T00:13:55;51.17;;;30.37;;
71435;SDS011;59251;51.326;12.370;2022-08-21T00:16:20;50.40;;;28.77;;
71435;SDS011;59251;51.326;12.370;2022-08-21T00:18:46;49.83;;;29.53;;
71435;SDS011;59251;51.326;12.370;2022-08-21T00:21:12;49.75;;;27.75;;
71435;SDS011;59251;51.326;12.370;2022-08-21T00:23:39;47.23;;;27.93;;
71435;SDS011;59251;51.326;12.370;2022-08-21T00:26:04;49.88;;;27.35;;
71435;SDS011;59251;51.326;12.370;2022-08-21T00:28:30;47.85;;;27.38;;
71435;SDS011;59251;51.326;12.370;2022-08-21T00:30:56;49.30;;;28.73;;
71435;SDS011;59251;51.326;12.370;2022-08-21T00:33:22;46.17;;;27.17;;
71435;SDS011;59251;51.326;12.370;2022-08-21T00:35:48;46.53;;;28.77;;
71435;SDS011;59251;51.326;12.370;2022-08-21T00:38:14;48.97;;;28.80;;
71435;SDS011;59251;51.326;12.370;2022-08-21T00:43:11;44.53;;;25.40;;
71435;SDS011;59251;51.326;12.370;2022-08-21T00:45:39;42.55;;;25.42;;
71435;SDS011;59251;51.326;12.370;2022-08-21T00:48:05;45.47;;;26.15;;
71435;SDS011;59251;51.326;12.370;2022-08-21T00:50:33;44.30;;;26.27;;
71435;SDS011;59251;51.326;12.370;2022-08-21T00:53:01;41.53;;;24.75;;
71435;SDS011;59251;51.326;12.370;2022-08-21T00:55:27;39.75;;;25.35;;
71435;SDS011;59251;51.326;12.370;2022-08-21T00:57:55;36.58;;;23.02;;
71435;SDS011;59251;51.326;12.370;2022-08-21T01:00:24;39.83;;;24.45;;
71435;SDS011;59251;51.326;12.370;2022-08-21T01:02:54;38.20;;;23.47;;
71435;SDS011;59251;51.326;12.370;2022-08-21T01:05:23;42.83;;;25.10;;
71435;SDS011;59251;51.326;12.370;2022-08-21T01:07:50;47.25;;;27.00;;
71435;SDS011;59251;51.326;12.370;2022-08-21T01:10:16;44.53;;;25.27;;
71435;SDS011;59251;51.326;12.370;2022-08-21T01:12:42;40.03;;;25.13;;
71435;SDS011;59251;51.326;12.370;2022-08-21T01:15:08;44.23;;;25.23;;
71435;SDS011;59251;51.326;12.370;2022-08-21T01:17:35;45.53;;;25.67;;
71435;SDS011;59251;51.326;12.370;2022-08-21T01:20:03;47.13;;;25.75;;
71435;SDS011;59251;51.326;12.370;2022-08-21T01:22:31;44.00;;;24.73;;
71435;SDS011;59251;51.326;12.370;2022-08-21T01:24:56;37.65;;;23.02;;
71435;SDS011;59251;51.326;12.370;2022-08-21T01:27:22;37.33;;;21.50;;
71435;SDS011;59251;51.326;12.370;2022-08-21T01:29:54;34.87;;;21.60;;
71435;SDS011;59251;51.326;12.370;2022-08-21T01:32:24;34.58;;;20.52;;
71435;SDS011;59251;51.326;12.370;2022-08-21T01:34:50;32.45;;;20.30;;
71435;SDS011;59251;51.326;12.370;2022-08-21T01:37:17;34.38;;;21.02;;
71435;SDS011;59251;51.326;12.370;2022-08-21T01:39:44;33.43;;;19.77;;
71435;SDS011;59251;51.326;12.370;2022-08-21T01:42:10;33.45;;;21.77;;
71435;SDS011;59251;51.326;12.370;2022-08-21T01:44:35;36.28;;;21.65;;
71435;SDS011;59251;51.326;12.370;2022-08-21T01:47:03;31.50;;;20.00;;
71435;SDS011;59251;51.326;12.370;2022-08-21T01:49:32;36.58;;;21.38;;
71435;SDS011;59251;51.326;12.370;2022-08-21T01:51:58;39.22;;;19.08;;
71435;SDS011;59251;51.326;12.370;2022-08-21T01:54:24;30.40;;;19.97;;
71435;SDS011;59251;51.326;12.370;2022-08-21T01:56:51;29.37;;;18.33;;
71435;SDS011;59251;51.326;12.370;2022-08-21T01:59:17;26.85;;;17.63;;
71435;SDS011;59251;51.326;12.370;2022-08-21T02:01:43;27.45;;;17.83;;
71435;SDS011;59251;51.326;12.370;2022-08-21T02:04:09;27.60;;;16.83;;
71435;SDS011;59251;51.326;12.370;2022-08-21T02:06:35;26.00;;;16.17;;
71435;SDS011;59251;51.326;12.370;2022-08-21T02:09:03;23.70;;;15.43;;
71435;SDS011;59251;51.326;12.370;2022-08-21T02:11:30;26.45;;;16.45;;
71435;SDS011;59251;51.326;12.370;2022-08-21T02:13:56;25.20;;;16.08;;
71435;SDS011;59251;51.326;12.370;2022-08-21T02:16:21;28.27;;;17.30;;
71435;SDS011;59251;51.326;12.370;2022-08-21T02:18:47;26.48;;;15.88;;
71435;SDS011;59251;51.326;12.370;2022-08-21T02:21:12;25.60;;;16.13;;
71435;SDS011;59251;51.326;12.370;2022-08-21T02:23:37;24.70;;;15.23;;
71435;SDS011;59251;51.326;12.370;2022-08-21T02:26:04;23.27;;;14.10;;
71435;SDS011;59251;51.326;12.370;2022-08-21T02:28:31;24.17;;;14.93;;
71435;SDS011;59251;51.326;12.370;2022-08-21T02:30:57;22.90;;;13.50;;
71435;SDS011;59251;51.326;12.370;2022-08-21T02:33:23;22.13;;;12.97;;
71435;SDS011;59251;51.326;12.370;2022-08-21T02:35:49;18.77;;;12.05;;
71435;SDS011;59251;51.326;12.370;2022-08-21T02:38:16;20.33;;;12.07;;
71435;SDS011;59251;51.326;12.370;2022-08-21T02:40:45;19.35;;;11.75;;
71435;SDS011;59251;51.326;12.370;2022-08-21T02:43:12;20.77;;;13.13;;
71435;SDS011;59251;51.326;12.370;2022-08-21T02:45:40;22.00;;;13.18;;
71435;SDS011;59251;51.326;12.370;2022-08-21T02:48:10;22.38;;;12.68;;
71435;SDS011;59251;51.326;12.370;2022-08-21T02:50:40;21.52;;;12.30;;
71435;SDS011;59251;51.326;12.370;2022-08-21T02:53:08;19.17;;;11.30;;
71435;SDS011;59251;51.326;12.370;2022-08-21T02:55:35;20.83;;;11.80;;
71435;SDS011;59251;51.326;12.370;2022-08-21T02:58:03;20.48;;;11.65;;
71435;SDS011;59251;51.326;12.370;2022-08-21T03:00:31;18.45;;;11.27;;
71435;SDS011;59251;51.326;12.370;2022-08-21T03:02:57;18.23;;;10.52;;
71435;SDS011;59251;51.326;12.370;2022-08-21T03:05:24;19.40;;;10.50;;
71435;SDS011;59251;51.326;12.370;2022-08-21T03:07:50;17.37;;;9.43;;
71435;SDS011;59251;51.326;12.370;2022-08-21T03:10:17;17.75;;;8.93;;
71435;SDS011;59251;51.326;12.370;2022-08-21T03:12:44;17.60;;;8.15;;
71435;SDS011;59251;51.326;12.370;2022-08-21T03:15:11;14.93;;;7.90;;
71435;SDS011;59251;51.326;12.370;2022-08-21T03:17:38;18.63;;;9.97;;
71435;SDS011;59251;51.326;12.370;2022-08-21T03:20:05;16.35;;;10.32;;
71435;SDS011;59251;51.326;12.370;2022-08-21T03:22:31;18.10;;;10.40;;
71435;SDS011;59251;51.326;12.370;2022-08-21T03:24:57;17.05;;;10.20;;
71435;SDS011;59251;51.326;12.370;2022-08-21T03:27:24;19.20;;;10.30;;
71435;SDS011;59251;51.326;12.370;2022-08-21T03:29:52;17.67;;;10.57;;
71435;SDS011;59251;51.326;12.370;2022-08-21T03:32:17;19.83;;;9.73;;
71435;SDS011;59251;51.326;12.370;2022-08-21T03:34:44;17.10;;;9.50;;
71435;SDS011;59251;51.326;12.370;2022-08-21T03:37:10;14.07;;;8.03;;
71435;SDS011;59251;51.326;12.370;2022-08-21T03:39:36;14.63;;;8.70;;
71435;SDS011;59251;51.326;12.370;2022-08-21T03:42:01;14.97;;;8.33;;
71435;SDS011;59251;51.326;12.370;2022-08-21T03:44:27;16.83;;;8.45;;
71435;SDS011;59251;51.326;12.370;2022-08-21T03:46:54;14.20;;;8.00;;
71435;SDS011;59251;51.326;12.370;2022-08-21T03:49:20;17.30;;;9.52;;
71435;SDS011;59251;51.326;12.370;2022-08-21T03:51:46;16.67;;;8.40;;
71435;SDS011;59251;51.326;12.370;2022-08-21T03:54:11;14.80;;;8.00;;
71435;SDS011;59251;51.326;12.370;2022-08-21T03:56:37;14.93;;;7.33;;
71435;SDS011;59251;51.326;12.370;2022-08-21T03:59:02;14.67;;;7.77;;
71435;SDS011;59251;51.326;12.370;2022-08-21T04:01:28;12.73;;;6.22;;
71435;SDS011;59251;51.326;12.370;2022-08-21T04:03:54;12.70;;;6.13;;
71435;SDS011;59251;51.326;12.370;2022-08-21T04:06:20;12.40;;;6.95;;
71435;SDS011;59251;51.326;12.370;2022-08-21T04:08:45;10.47;;;6.30;;
71435;SDS011;59251;51.326;12.370;2022-08-21T04:11:11;15.00;;;7.10;;
71435;SDS011;59251;51.326;12.370;2022-08-21T04:13:36;12.47;;;6.63;;
71435;SDS011;59251;51.326;12.370;2022-08-21T04:16:03;14.80;;;6.20;;
71435;SDS011;59251;51.326;12.370;2022-08-21T04:18:29;18.98;;;6.95;;
71435;SDS011;59251;51.326;12.370;2022-08-21T04:20:56;12.77;;;5.87;;
71435;SDS011;59251;51.326;12.370;2022-08-21T04:23:23;15.23;;;6.50;;
71435;SDS011;59251;51.326;12.370;2022-08-21T04:25:49;12.23;;;5.47;;
71435;SDS011;59251;51.326;12.370;2022-08-21T04:28:14;11.02;;;4.53;;
71435;SDS011;59251;51.326;12.370;2022-08-21T04:30:40;15.03;;;6.23;;
71435;SDS011;59251;51.326;12.370;2022-08-21T04:33:05;17.00;;;5.63;;
71435;SDS011;59251;51.326;12.370;2022-08-21T04:35:31;13.70;;;5.80;;
71435;SDS011;59251;51.326;12.370;2022-08-21T04:37:57;13.63;;;5.83;;
71435;SDS011;59251;51.326;12.370;2022-08-21T04:40:24;12.32;;;6.53;;
71435;SDS011;59251;51.326;12.370;2022-08-21T04:42:52;13.82;;;6.28;;
71435;SDS011;59251;51.326;12.370;2022-08-21T04:45:21;14.10;;;6.70;;
71435;SDS011;59251;51.326;12.370;2022-08-21T04:47:53;17.38;;;7.53;;
71435;SDS011;59251;51.326;12.370;2022-08-21T04:50:22;13.00;;;7.28;;
71435;SDS011;59251;51.326;12.370;2022-08-21T04:52:51;16.35;;;6.85;;
71435;SDS011;59251;51.326;12.370;2022-08-21T04:55:17;13.18;;;6.10;;
71435;SDS011;59251;51.326;12.370;2022-08-21T04:57:43;12.40;;;6.20;;
71435;SDS011;59251;51.326;12.370;2022-08-21T05:00:09;13.82;;;6.22;;
71435;SDS011;59251;51.326;12.370;2022-08-21T05:02:37;12.38;;;5.13;;
71435;SDS011;59251;51.326;12.370;2022-08-21T05:05:04;11.85;;;5.60;;
71435;SDS011;59251;51.326;12.370;2022-08-21T05:07:30;13.07;;;4.80;;
71435;SDS011;59251;51.326;12.370;2022-08-21T05:09:57;11.75;;;5.35;;
71435;SDS011;59251;51.326;12.370;2022-08-21T05:12:24;12.68;;;5.55;;
71435;SDS011;59251;51.326;12.370;2022-08-21T05:14:50;12.10;;;5.45;;
71435;SDS011;59251;51.326;12.370;2022-08-21T05:17:15;11.60;;;5.57;;
71435;SDS011;59251;51.326;12.370;2022-08-21T05:19:41;12.50;;;5.23;;
71435;SDS011;59251;51.326;12.370;2022-08-21T05:22:06;10.90;;;4.87;;
71435;SDS011;59251;51.326;12.370;2022-08-21T05:24:32;11.00;;;4.63;;
71435;SDS011;59251;51.326;12.370;2022-08-21T05:26:58;11.03;;;4.80;;
71435;SDS011;59251;51.326;12.370;2022-08-21T05:29:24;10.38;;;4.75;;
71435;SDS011;59251;51.326;12.370;2022-08-21T05:31:50;10.63;;;4.40;;
71435;SDS011;59251;51.326;12.370;2022-08-21T05:34:19;11.77;;;4.57;;
71435;SDS011;59251;51.326;12.370;2022-08-21T05:36:46;13.07;;;4.68;;
71435;SDS011;59251;51.326;12.370;2022-08-21T05:39:11;10.00;;;4.17;;
71435;SDS011;59251;51.326;12.370;2022-08-21T05:41:37;9.27;;;4.23;;
71435;SDS011;59251;51.326;12.370;2022-08-21T05:44:02;11.85;;;4.38;;
71435;SDS011;59251;51.326;12.370;2022-08-21T05:46:28;11.90;;;3.93;;
71435;SDS011;59251;51.326;12.370;2022-08-21T05:48:53;11.00;;;4.03;;
71435;SDS011;59251;51.326;12.370;2022-08-21T05:51:19;11.47;;;4.47;;
71435;SDS011;59251;51.326;12.370;2022-08-21T05:53:44;11.43;;;4.30;;
71435;SDS011;59251;51.326;12.370;2022-08-21T05:56:10;11.00;;;4.40;;
71435;SDS011;59251;51.326;12.370;2022-08-21T05:58:37;9.10;;;4.60;;
71435;SDS011;59251;51.326;12.370;2022-08-21T06:01:03;9.47;;;4.50;;
71435;SDS011;59251;51.326;12.370;2022-08-21T06:03:30;11.93;;;4.13;;
71435;SDS011;59251;51.326;12.370;2022-08-21T06:05:58;10.07;;;3.92;;
71435;SDS011;59251;51.326;12.370;2022-08-21T06:08:24;15.67;;;4.40;;
71435;SDS011;59251;51.326;12.370;2022-08-21T06:10:50;11.73;;;3.83;;
71435;SDS011;59251;51.326;12.370;2022-08-21T06:13:17;9.80;;;4.03;;
71435;SDS011;59251;51.326;12.370;2022-08-21T06:15:44;9.77;;;4.00;;
71435;SDS011;59251;51.326;12.370;2022-08-21T06:18:11;11.23;;;4.20;;
71435;SDS011;59251;51.326;12.370;2022-08-21T06:20:37;9.05;;;3.83;;
71435;SDS011;59251;51.326;12.370;2022-08-21T06:23:03;11.65;;;4.15;;
71435;SDS011;59251;51.326;12.370;2022-08-21T06:25:28;13.90;;;5.57;;
71435;SDS011;59251;51.326;12.370;2022-08-21T06:28:04;10.57;;;4.15;;
71435;SDS011;59251;51.326;12.370;2022-08-21T06:30:35;11.63;;;3.88;;
71435;SDS011;59251;51.326;12.370;2022-08-21T06:33:02;12.68;;;4.25;;
71435;SDS011;59251;51.326;12.370;2022-08-21T06:35:28;8.95;;;4.22;;
71435;SDS011;59251;51.326;12.370;2022-08-21T06:37:55;13.67;;;4.17;;
71435;SDS011;59251;51.326;12.370;2022-08-21T06:40:21;9.85;;;4.18;;
71435;SDS011;59251;51.326;12.370;2022-08-21T06:42:46;10.27;;;4.60;;
71435;SDS011;59251;51.326;12.370;2022-08-21T06:45:12;9.20;;;4.10;;
71435;SDS011;59251;51.326;12.370;2022-08-21T06:47:38;11.97;;;3.87;;
71435;SDS011;59251;51.326;12.370;2022-08-21T06:50:04;10.30;;;3.70;;
71435;SDS011;59251;51.326;12.370;2022-08-21T06:52:32;11.77;;;4.53;;
71435;SDS011;59251;51.326;12.370;2022-08-21T06:54:58;12.23;;;3.70;;
71435;SDS011;59251;51.326;12.370;2022-08-21T06:57:24;10.70;;;3.90;;
71435;SDS011;59251;51.326;12.370;2022-08-21T06:59:50;9.65;;;4.20;;
71435;SDS011;59251;51.326;12.370;2022-08-21T07:02:16;11.13;;;4.43;;
71435;SDS011;59251;51.326;12.370;2022-08-21T07:04:42;9.07;;;3.80;;
71435;SDS011;59251;51.326;12.370;2022-08-21T07:07:07;9.07;;;3.47;;
71435;SDS011;59251;51.326;12.370;2022-08-21T07:09:33;8.40;;;3.80;;
71435;SDS011;59251;51.326;12.370;2022-08-21T07:11:58;10.23;;;3.87;;
71435;SDS011;59251;51.326;12.370;2022-08-21T07:14:24;9.87;;;3.40;;
71435;SDS011;59251;51.326;12.370;2022-08-21T07:16:49;8.55;;;3.60;;
71435;SDS011;59251;51.326;12.370;2022-08-21T07:19:15;11.47;;;4.00;;
71435;SDS011;59251;51.326;12.370;2022-08-21T07:21:41;8.87;;;3.50;;
71435;SDS011;59251;51.326;12.370;2022-08-21T07:24:06;9.67;;;3.80;;
71435;SDS011;59251;51.326;12.370;2022-08-21T07:26:32;8.83;;;3.60;;
71435;SDS011;59251;51.326;12.370;2022-08-21T07:28:57;9.38;;;3.35;;
71435;SDS011;59251;51.326;12.370;2022-08-21T07:31:24;10.50;;;3.63;;
71435;SDS011;59251;51.326;12.370;2022-08-21T07:33:50;8.30;;;3.20;;
71435;SDS011;59251;51.326;12.370;2022-08-21T07:36:16;7.82;;;3.20;;
71435;SDS011;59251;51.326;12.370;2022-08-21T07:38:42;11.13;;;3.30;;
71435;SDS011;59251;51.326;12.370;2022-08-21T07:41:21;11.77;;;3.33;;
71435;SDS011;59251;51.326;12.370;2022-08-21T07:43:49;9.82;;;3.17;;
71435;SDS011;59251;51.326;12.370;2022-08-21T07:46:15;12.77;;;3.53;;
71435;SDS011;59251;51.326;12.370;2022-08-21T07:48:41;10.70;;;3.40;;
71435;SDS011;59251;51.326;12.370;2022-08-21T07:51:07;7.78;;;3.10;;
71435;SDS011;59251;51.326;12.370;2022-08-21T07:53:35;9.63;;;3.15;;
71435;SDS011;59251;51.326;12.370;2022-08-21T07:56:02;8.90;;;3.10;;
71435;SDS011;59251;51.326;12.370;2022-08-21T07:58:29;9.95;;;3.15;;
71435;SDS011;59251;51.326;12.370;2022-08-21T08:00:55;11.20;;;3.33;;
71435;SDS011;59251;51.326;12.370;2022-08-21T08:03:21;8.20;;;2.63;;
71435;SDS011;59251;51.326;12.370;2022-08-21T08:05:46;12.23;;;3.10;;
71435;SDS011;59251;51.326;12.370;2022-08-21T08:08:12;8.87;;;2.80;;
71435;SDS011;59251;51.326;12.370;2022-08-21T08:10:37;11.53;;;2.90;;
71435;SDS011;59251;51.326;12.370;2022-08-21T08:13:03;8.48;;;2.92;;
71435;SDS011;59251;51.326;12.370;2022-08-21T08:15:29;7.40;;;2.43;;
71435;SDS011;59251;51.326;12.370;2022-08-21T08:17:55;8.88;;;2.65;;
71435;SDS011;59251;51.326;12.370;2022-08-21T08:20:21;9.13;;;2.80;;
71435;SDS011;59251;51.326;12.370;2022-08-21T08:22:48;8.63;;;2.45;;
71435;SDS011;59251;51.326;12.370;2022-08-21T08:25:14;7.70;;;2.30;;
71435;SDS011;59251;51.326;12.370;2022-08-21T08:27:41;11.77;;;2.28;;
71435;SDS011;59251;51.326;12.370;2022-08-21T08:30:08;7.13;;;2.27;;
71435;SDS011;59251;51.326;12.370;2022-08-21T08:32:35;7.55;;;2.33;;
71435;SDS011;59251;51.326;12.370;2022-08-21T08:35:01;10.07;;;2.40;;
71435;SDS011;59251;51.326;12.370;2022-08-21T08:37:27;7.57;;;2.00;;
71435;SDS011;59251;51.326;12.370;2022-08-21T08:39:52;7.70;;;2.00;;
71435;SDS011;59251;51.326;12.370;2022-08-21T08:42:20;9.65;;;2.25;;
71435;SDS011;59251;51.326;12.370;2022-08-21T08:44:55;6.78;;;2.00;;
71435;SDS011;59251;51.326;12.370;2022-08-21T08:47:25;7.22;;;2.20;;
71435;SDS011;59251;51.326;12.370;2022-08-21T08:49:58;8.00;;;2.17;;
71435;SDS011;59251;51.326;12.370;2022-08-21T08:53:14;8.20;;;2.00;;
71435;SDS011;59251;51.326;12.370;2022-08-21T08:55:40;8.25;;;2.15;;
71435;SDS011;59251;51.326;12.370;2022-08-21T08:58:18;6.35;;;1.83;;
71435;SDS011;59251;51.326;12.370;2022-08-21T09:00:49;7.90;;;2.10;;
71435;SDS011;59251;51.326;12.370;2022-08-21T09:03:17;8.60;;;1.70;;
71435;SDS011;59251;51.326;12.370;2022-08-21T09:05:45;7.65;;;2.10;;
71435;SDS011;59251;51.326;12.370;2022-08-21T09:11:02;8.02;;;1.98;;
71435;SDS011;59251;51.326;12.370;2022-08-21T09:13:34;7.20;;;2.10;;
71435;SDS011;59251;51.326;12.370;2022-08-21T09:22:03;8.65;;;2.25;;
71435;SDS011;59251;51.326;12.370;2022-08-21T09:24:50;9.40;;;1.98;;
71435;SDS011;59251;51.326;12.370;2022-08-21T09:27:35;8.63;;;1.95;;
71435;SDS011;59251;51.326;12.370;2022-08-21T09:30:02;8.50;;;1.97;;
71435;SDS011;59251;51.326;12.370;2022-08-21T09:32:30;8.25;;;1.90;;
71435;SDS011;59251;51.326;12.370;2022-08-21T09:37:32;8.10;;;1.90;;
71435;SDS011;59251;51.326;12.370;2022-08-21T09:40:00;7.47;;;2.15;;
71435;SDS011;59251;51.326;12.370;2022-08-21T09:42:27;7.03;;;1.85;;
71435;SDS011;59251;51.326;12.370;2022-08-21T09:45:13;7.57;;;1.95;;
71435;SDS011;59251;51.326;12.370;2022-08-21T09:47:42;8.90;;;1.77;;
71435;SDS011;59251;51.326;12.370;2022-08-21T09:50:14;6.33;;;1.53;;
71435;SDS011;59251;51.326;12.370;2022-08-21T09:52:46;9.48;;;1.70;;
71435;SDS011;59251;51.326;12.370;2022-08-21T09:55:16;7.13;;;1.60;;
71435;SDS011;59251;51.326;12.370;2022-08-21T09:58:04;8.45;;;1.90;;
71435;SDS011;59251;51.326;12.370;2022-08-21T10:00:32;9.10;;;1.70;;
71435;SDS011;59251;51.326;12.370;2022-08-21T10:03:10;6.77;;;1.50;;
71435;SDS011;59251;51.326;12.370;2022-08-21T10:05:54;7.32;;;1.88;;
71435;SDS011;59251;51.326;12.370;2022-08-21T10:08:25;6.43;;;1.60;;
71435;SDS011;59251;51.326;12.370;2022-08-21T10:10:57;6.68;;;1.45;;
71435;SDS011;59251;51.326;12.370;2022-08-21T10:16:18;6.90;;;1.60;;
71435;SDS011;59251;51.326;12.370;2022-08-21T10:21:46;7.80;;;1.70;;
71435;SDS011;59251;51.326;12.370;2022-08-21T10:24:38;8.73;;;2.15;;
71435;SDS011;59251;51.326;12.370;2022-08-21T10:41:06;8.60;;;2.22;;
71435;SDS011;59251;51.326;12.370;2022-08-21T10:51:57;7.80;;;1.80;;
71435;SDS011;59251;51.326;12.370;2022-08-21T10:54:40;7.70;;;1.90;;
71435;SDS011;59251;51.326;12.370;2022-08-21T10:57:14;6.67;;;1.70;;
71435;SDS011;59251;51.326;12.370;2022-08-21T10:59:47;9.50;;;1.80;;
71435;SDS011;59251;51.326;12.370;2022-08-21T11:05:11;7.63;;;1.65;;
71435;SDS011;59251;51.326;12.370;2022-08-21T11:07:45;6.60;;;1.60;;
71435;SDS011;59251;51.326;12.370;2022-08-21T11:10:21;6.73;;;1.60;;
71435;SDS011;59251;51.326;12.370;2022-08-21T11:13:26;7.32;;;1.38;;
71435;SDS011;59251;51.326;12.370;2022-08-21T11:18:39;8.00;;;1.80;;
71435;SDS011;59251;51.326;12.370;2022-08-21T11:26:44;9.38;;;1.77;;
71435;SDS011;59251;51.326;12.370;2022-08-21T11:34:57;9.95;;;1.85;;
71435;SDS011;59251;51.326;12.370;2022-08-21T11:43:17;9.40;;;1.92;;
71435;SDS011;59251;51.326;12.370;2022-08-21T11:49:01;12.07;;;2.45;;
71435;SDS011;59251;51.326;12.370;2022-08-21T11:51:52;9.17;;;2.00;;
71435;SDS011;59251;51.326;12.370;2022-08-21T12:02:39;7.20;;;1.77;;
71435;SDS011;59251;51.326;12.370;2022-08-21T12:05:11;8.63;;;2.07;;
71435;SDS011;59251;51.326;12.370;2022-08-21T12:08:06;8.75;;;2.28;;
71435;SDS011;59251;51.326;12.370;2022-08-21T12:10:46;6.88;;;1.80;;
71435;SDS011;59251;51.326;12.370;2022-08-21T12:13:25;7.68;;;1.65;;
71435;SDS011;59251;51.326;12.370;2022-08-21T12:16:04;8.60;;;2.22;;
71435;SDS011;59251;51.326;12.370;2022-08-21T12:18:31;6.80;;;1.97;;
71435;SDS011;59251;51.326;12.370;2022-08-21T12:26:11;7.50;;;2.25;;
71435;SDS011;59251;51.326;12.370;2022-08-21T12:28:44;9.00;;;1.90;;
71435;SDS011;59251;51.326;12.370;2022-08-21T12:31:46;9.57;;;2.07;;
71435;SDS011;59251;51.326;12.370;2022-08-21T12:34:12;9.45;;;2.08;;
71435;SDS011;59251;51.326;12.370;2022-08-21T12:36:52;9.88;;;2.38;;
71435;SDS011;59251;51.326;12.370;2022-08-21T12:39:22;9.52;;;2.00;;
71435;SDS011;59251;51.326;12.370;2022-08-21T12:41:55;8.27;;;2.10;;
71435;SDS011;59251;51.326;12.370;2022-08-21T12:44:29;6.13;;;1.60;;
71435;SDS011;59251;51.326;12.370;2022-08-21T12:47:17;9.35;;;2.35;;
71435;SDS011;59251;51.326;12.370;2022-08-21T12:49:56;7.05;;;2.30;;
71435;SDS011;59251;51.326;12.370;2022-08-21T12:52:30;9.20;;;2.13;;
71435;SDS011;59251;51.326;12.370;2022-08-21T12:55:02;8.70;;;2.08;;
71435;SDS011;59251;51.326;12.370;2022-08-21T12:57:29;6.87;;;1.90;;
71435;SDS011;59251;51.326;12.370;2022-08-21T12:59:56;9.38;;;2.33;;
71435;SDS011;59251;51.326;12.370;2022-08-21T13:02:25;8.32;;;1.80;;
71435;SDS011;59251;51.326;12.370;2022-08-21T13:04:54;9.13;;;2.10;;
71435;SDS011;59251;51.326;12.370;2022-08-21T13:07:27;9.15;;;1.80;;
71435;SDS011;59251;51.326;12.370;2022-08-21T13:09:59;9.20;;;2.13;;
71435;SDS011;59251;51.326;12.370;2022-08-21T13:12:27;8.43;;;2.33;;
71435;SDS011;59251;51.326;12.370;2022-08-21T13:14:56;8.15;;;2.28;;
71435;SDS011;59251;51.326;12.370;2022-08-21T13:17:23;8.73;;;2.20;;
71435;SDS011;59251;51.326;12.370;2022-08-21T13:19:58;7.30;;;2.03;;
71435;SDS011;59251;51.326;12.370;2022-08-21T13:22:26;6.80;;;2.00;;
71435;SDS011;59251;51.326;12.370;2022-08-21T13:24:53;6.60;;;1.80;;
71435;SDS011;59251;51.326;12.370;2022-08-21T13:27:28;7.60;;;2.10;;
71435;SDS011;59251;51.326;12.370;2022-08-21T13:30:05;8.95;;;2.00;;
71435;SDS011;59251;51.326;12.370;2022-08-21T13:32:37;9.80;;;2.03;;
71435;SDS011;59251;51.326;12.370;2022-08-21T13:35:09;9.15;;;2.28;;
71435;SDS011;59251;51.326;12.370;2022-08-21T13:37:37;7.90;;;1.90;;
71435;SDS011;59251;51.326;12.370;2022-08-21T13:40:06;6.40;;;1.85;;
71435;SDS011;59251;51.326;12.370;2022-08-21T13:42:34;7.72;;;2.17;;
71435;SDS011;59251;51.326;12.370;2022-08-21T13:44:59;8.53;;;2.37;;
71435;SDS011;59251;51.326;12.370;2022-08-21T13:47:25;9.03;;;2.00;;
71435;SDS011;59251;51.326;12.370;2022-08-21T13:49:51;7.93;;;2.20;;
71435;SDS011;59251;51.326;12.370;2022-08-21T13:52:19;7.18;;;2.10;;
71435;SDS011;59251;51.326;12.370;2022-08-21T13:54:57;8.15;;;2.10;;
71435;SDS011;59251;51.326;12.370;2022-08-21T13:57:29;7.27;;;2.10;;
71435;SDS011;59251;51.326;12.370;2022-08-21T14:03:01;7.00;;;2.10;;
71435;SDS011;59251;51.326;12.370;2022-08-21T14:05:31;8.18;;;2.20;;
71435;SDS011;59251;51.326;12.370;2022-08-21T14:08:01;8.82;;;2.17;;
71435;SDS011;59251;51.326;12.370;2022-08-21T14:10:27;7.73;;;2.00;;
71435;SDS011;59251;51.326;12.370;2022-08-21T14:12:56;6.97;;;2.00;;
71435;SDS011;59251;51.326;12.370;2022-08-21T14:15:30;5.80;;;1.98;;
71435;SDS011;59251;51.326;12.370;2022-08-21T14:18:14;9.75;;;1.90;;
71435;SDS011;59251;51.326;12.370;2022-08-21T14:20:42;6.95;;;2.00;;
71435;SDS011;59251;51.326;12.370;2022-08-21T14:23:08;8.03;;;2.33;;
71435;SDS011;59251;51.326;12.370;2022-08-21T14:25:41;9.10;;;2.03;;
71435;SDS011;59251;51.326;12.370;2022-08-21T14:28:19;10.15;;;2.20;;
71435;SDS011;59251;51.326;12.370;2022-08-21T14:30:50;8.97;;;2.10;;
71435;SDS011;59251;51.326;12.370;2022-08-21T14:33:27;7.13;;;1.85;;
71435;SDS011;59251;51.326;12.370;2022-08-21T14:35:55;7.95;;;2.33;;
71435;SDS011;59251;51.326;12.370;2022-08-21T14:38:22;7.57;;;2.00;;
71435;SDS011;59251;51.326;12.370;2022-08-21T14:40:51;10.43;;;2.40;;
71435;SDS011;59251;51.326;12.370;2022-08-21T14:43:19;5.63;;;2.00;;
71435;SDS011;59251;51.326;12.370;2022-08-21T14:45:45;7.82;;;2.17;;
71435;SDS011;59251;51.326;12.370;2022-08-21T14:48:11;7.72;;;2.13;;
71435;SDS011;59251;51.326;12.370;2022-08-21T14:50:36;8.93;;;2.10;;
71435;SDS011;59251;51.326;12.370;2022-08-21T14:53:03;7.93;;;2.00;;
71435;SDS011;59251;51.326;12.370;2022-08-21T14:55:29;10.17;;;2.40;;
71435;SDS011;59251;51.326;12.370;2022-08-21T14:57:56;8.73;;;2.03;;
71435;SDS011;59251;51.326;12.370;2022-08-21T15:00:22;9.13;;;2.30;;
71435;SDS011;59251;51.326;12.370;2022-08-21T15:02:50;8.30;;;2.38;;
71435;SDS011;59251;51.326;12.370;2022-08-21T15:05:17;7.93;;;2.40;;
71435;SDS011;59251;51.326;12.370;2022-08-21T15:07:43;6.73;;;1.97;;
71435;SDS011;59251;51.326;12.370;2022-08-21T15:10:09;11.38;;;2.40;;
71435;SDS011;59251;51.326;12.370;2022-08-21T15:12:36;8.65;;;2.20;;
71435;SDS011;59251;51.326;12.370;2022-08-21T15:15:04;7.95;;;2.28;;
71435;SDS011;59251;51.326;12.370;2022-08-21T15:17:30;7.22;;;2.30;;
71435;SDS011;59251;51.326;12.370;2022-08-21T15:19:56;6.73;;;2.27;;
71435;SDS011;59251;51.326;12.370;2022-08-21T15:22:21;6.43;;;2.33;;
71435;SDS011;59251;51.326;12.370;2022-08-21T15:24:47;8.80;;;2.30;;
71435;SDS011;59251;51.326;12.370;2022-08-21T15:27:12;8.15;;;2.90;;
71435;SDS011;59251;51.326;12.370;2022-08-21T15:29:39;7.23;;;2.13;;
71435;SDS011;59251;51.326;12.370;2022-08-21T15:32:20;6.13;;;2.05;;
71435;SDS011;59251;51.326;12.370;2022-08-21T15:34:47;7.00;;;2.20;;
71435;SDS011;59251;51.326;12.370;2022-08-21T15:37:14;7.75;;;2.40;;
71435;SDS011;59251;51.326;12.370;2022-08-21T15:39:39;8.87;;;2.40;;
71435;SDS011;59251;51.326;12.370;2022-08-21T15:42:05;7.97;;;2.30;;
71435;SDS011;59251;51.326;12.370;2022-08-21T15:44:31;8.20;;;2.20;;
71435;SDS011;59251;51.326;12.370;2022-08-21T15:46:57;6.72;;;2.00;;
71435;SDS011;59251;51.326;12.370;2022-08-21T15:49:23;6.95;;;2.53;;
71435;SDS011;59251;51.326;12.370;2022-08-21T15:51:49;9.87;;;2.40;;
71435;SDS011;59251;51.326;12.370;2022-08-21T15:54:15;8.52;;;2.28;;
71435;SDS011;59251;51.326;12.370;2022-08-21T15:56:40;6.90;;;2.10;;
71435;SDS011;59251;51.326;12.370;2022-08-21T15:59:15;8.30;;;2.55;;